Time;durP1;ratioP1;P1;durP2;ratioP2;P2;SDS_P1;SDS_P2;PMS_P1;PMS_P2;Temp;Humidity;BMP_temperature;BMP_pressure;BME280_temperature;BME280_humidity;BME280_pressure;Samples;Min_cycle;Max_cycle;Signal;HPM_P1;HPM_P2
2024/03/22 00:02:32;;;;;;;6.90;6.27;;;6.50;99.90;;;7.18;99.45;98656.81;10407187;28;20235;-67
2024/03/22 00:07:36;;;;;;;7.10;6.50;;;6.40;99.90;;;7.14;99.37;98648.81;10415589;28;20232;-67
2024/03/22 00:12:38;;;;;;;7.30;6.60;;;6.40;99.90;;;7.11;99.63;98646.88;10417887;28;20221;-67
2024/03/22 00:17:40;;;;;;;7.80;7.03;;;6.30;99.90;;;7.09;98.63;98645.88;10410152;28;20243;-67
2024/03/22 00:22:44;;;;;;;7.00;6.30;;;6.20;99.90;;;6.87;99.08;98639.78;10432872;28;21043;-67
2024/03/22 00:27:46;;;;;;;7.17;6.50;;;6.10;99.90;;;6.78;99.46;98627.16;10415296;28;20225;-67
2024/03/22 00:32:48;;;;;;;8.40;7.70;;;6.00;99.90;;;6.75;100.00;98629.44;10412652;28;20231;-67
2024/03/22 00:37:51;;;;;;;8.07;7.37;;;6.00;99.90;;;6.84;100.00;98636.94;10426353;22;20672;-70
2024/03/22 00:42:54;;;;;;;7.13;6.53;;;6.10;99.90;;;6.81;100.00;98641.78;10380642;28;20230;-67
2024/03/22 00:47:56;;;;;;;7.73;7.03;;;6.00;99.90;;;6.66;100.00;98628.69;10385048;28;21330;-66
2024/03/22 00:52:59;;;;;;;8.03;7.13;;;5.90;99.90;;;6.69;100.00;98626.41;10416528;28;20271;-69
2024/03/22 00:58:01;;;;;;;7.07;6.37;;;5.90;99.90;;;6.70;98.90;98607.88;10418747;28;20245;-69
2024/03/22 01:03:04;;;;;;;6.83;6.17;;;5.70;99.90;;;6.48;99.32;98607.72;10412703;28;20320;-68
2024/03/22 01:08:09;;;;;;;7.70;6.93;;;5.60;99.90;;;6.40;100.00;98598.53;10405628;28;20314;-69
2024/03/22 01:13:11;;;;;;;7.53;6.87;;;5.50;99.90;;;6.26;100.00;98603.31;10406620;28;20607;-69
2024/03/22 01:18:13;;;;;;;7.83;7.03;;;5.50;99.90;;;6.22;100.00;98596.22;10417856;28;20230;-68
2024/03/22 01:23:17;;;;;;;6.80;6.20;;;5.50;99.90;;;6.20;100.00;98585.03;10409433;28;20232;-68
2024/03/22 01:28:19;;;;;;;7.67;6.97;;;5.40;99.90;;;6.13;100.00;98577.69;10408488;28;20688;-66
2024/03/22 01:33:21;;;;;;;7.70;7.00;;;5.30;99.90;;;6.12;100.00;98582.59;10420654;28;20234;-67
2024/03/22 01:38:24;;;;;;;8.53;7.47;;;5.30;99.90;;;6.08;100.00;98578.91;10420268;28;20233;-67
2024/03/22 01:43:26;;;;;;;7.43;6.83;;;5.30;99.90;;;6.18;100.00;98576.44;10408980;28;20275;-70
2024/03/22 01:48:29;;;;;;;6.93;6.23;;;5.40;99.90;;;6.02;100.00;98575.88;10408485;28;20221;-66
2024/03/22 01:53:33;;;;;;;8.70;7.90;;;5.10;99.90;;;5.73;100.00;98566.59;10398762;28;20241;-66
2024/03/22 01:58:35;;;;;;;8.20;7.50;;;4.90;99.90;;;5.78;100.00;98574.56;10405746;28;20599;-70
2024/03/22 02:03:37;;;;;;;8.17;7.37;;;5.00;99.90;;;5.82;100.00;98571.56;10401274;28;20856;-70
2024/03/22 02:08:43;;;;;;;8.50;7.70;;;5.00;99.90;;;5.78;100.00;98557.75;10421736;28;20313;-68
2024/03/22 02:13:46;;;;;;;7.90;7.13;;;5.00;99.90;;;5.73;100.00;98564.06;10423964;28;20246;-68
2024/03/22 02:18:49;;;;;;;8.57;7.67;;;4.90;99.90;;;5.69;100.00;98559.44;10403526;28;20804;-69
2024/03/22 02:23:52;;;;;;;8.00;7.33;;;4.90;99.90;;;5.62;100.00;98557.16;10406986;28;20786;-68
2024/03/22 02:28:54;;;;;;;8.33;7.63;;;4.80;99.90;;;5.57;100.00;98543.19;10397187;28;20233;-69
2024/03/22 02:33:56;;;;;;;8.37;7.57;;;4.80;99.90;;;5.60;100.00;98533.31;10401082;28;20229;-69
2024/03/22 02:39:00;;;;;;;8.70;7.87;;;4.70;99.90;;;5.38;100.00;98530.56;10399652;28;20236;-67
2024/03/22 02:44:02;;;;;;;9.83;8.60;;;4.60;99.90;;;5.37;100.00;98528.75;10400968;28;20230;-67
2024/03/22 02:49:04;;;;;;;10.70;9.10;;;4.70;99.90;;;5.39;100.00;98520.53;10401168;28;20571;-66
2024/03/22 02:54:08;;;;;;;9.23;8.20;;;4.70;99.90;;;5.42;100.00;98528.41;10414107;28;20925;-67
2024/03/22 02:59:10;;;;;;;7.83;7.10;;;4.70;99.90;;;5.42;100.00;98532.59;10399106;28;20682;-68
2024/03/22 03:04:12;;;;;;;8.90;8.07;;;4.60;99.90;;;5.42;100.00;98515.72;10406074;28;20229;-68
2024/03/22 03:09:16;;;;;;;8.73;7.93;;;4.70;99.90;;;5.39;100.00;98506.97;10403824;28;20938;-68
2024/03/22 03:14:18;;;;;;;9.40;8.47;;;4.60;99.90;;;5.37;100.00;98509.38;10402420;28;20229;-67
2024/03/22 03:19:20;;;;;;;8.93;8.10;;;4.50;99.90;;;5.27;100.00;98500.84;10398186;28;20648;-67
2024/03/22 03:24:23;;;;;;;8.87;8.07;;;4.40;99.90;;;5.24;100.00;98503.13;10415212;28;20274;-67
2024/03/22 03:29:25;;;;;;;10.07;9.20;;;4.40;99.90;;;5.19;100.00;98502.69;10399479;28;20251;-67
2024/03/22 03:34:28;;;;;;;9.50;8.60;;;4.30;99.90;;;5.15;100.00;98485.44;10416461;28;20225;-67
2024/03/22 03:39:31;;;;;;;8.93;8.13;;;4.30;99.90;;;5.01;100.00;98481.72;10407432;28;20639;-67
2024/03/22 03:44:33;;;;;;;10.33;9.27;;;4.20;99.90;;;5.02;100.00;98480.06;10406506;28;20232;-67
2024/03/22 03:49:35;;;;;;;10.27;9.27;;;4.30;99.90;;;5.01;100.00;98485.84;10409048;28;20232;-67
2024/03/22 03:54:39;;;;;;;11.83;9.60;;;4.20;99.90;;;4.98;100.00;98478.91;10420515;28;20236;-69
2024/03/22 03:59:41;;;;;;;10.70;9.60;;;4.20;99.90;;;4.92;100.00;98485.94;10414641;28;20363;-69
2024/03/22 04:04:43;;;;;;;10.50;9.50;;;4.10;99.90;;;4.92;100.00;98494.44;10411625;28;20310;-66
2024/03/22 04:09:47;;;;;;;9.90;8.90;;;4.10;99.90;;;4.85;100.00;98484.50;10405783;28;20229;-69
2024/03/22 04:14:49;;;;;;;11.47;9.90;;;4.00;99.90;;;4.79;100.00;98483.97;10413191;28;20271;-70
2024/03/22 04:19:51;;;;;;;9.93;8.93;;;3.90;99.90;;;4.69;100.00;98497.47;10407129;28;20314;-67
2024/03/22 04:24:55;;;;;;;13.57;11.17;;;3.90;99.90;;;4.60;100.00;98495.72;10407277;28;20305;-69
2024/03/22 04:29:58;;;;;;;13.43;11.50;;;3.90;99.90;;;4.58;100.00;98488.00;10405032;28;20232;-68
2024/03/22 04:35:00;;;;;;;11.60;10.40;;;3.90;99.90;;;4.68;100.00;98484.66;10423985;28;21736;-68
2024/03/22 04:40:05;;;;;;;12.57;11.27;;;4.00;99.90;;;4.73;100.00;98498.63;10407537;28;20315;-69
2024/03/22 04:45:09;;;;;;;13.13;11.73;;;3.90;99.90;;;4.70;100.00;98493.28;10407352;28;20286;-69
2024/03/22 04:50:13;;;;;;;13.80;10.83;;;4.00;99.90;;;4.78;100.00;98497.41;10424024;28;20236;-68
2024/03/22 04:55:16;;;;;;;12.00;10.70;;;4.10;99.90;;;4.81;100.00;98495.13;10425048;28;20224;-67
2024/03/22 05:00:19;;;;;;;11.73;10.57;;;4.00;99.90;;;4.65;100.00;98495.38;10400777;28;20354;-67
2024/03/22 05:05:21;;;;;;;13.70;11.60;;;3.80;99.90;;;4.65;100.00;98509.69;10399883;28;20807;-67
2024/03/22 05:10:25;;;;;;;12.43;11.07;;;4.00;99.90;;;4.69;100.00;98502.53;10400860;28;20273;-67
2024/03/22 05:15:27;;;;;;;14.27;12.20;;;3.90;99.90;;;4.62;100.00;98490.06;10413583;28;20232;-68
2024/03/22 05:20:30;;;;;;;14.13;12.63;;;3.80;99.90;;;4.68;100.00;98479.59;10430748;28;20312;-67
2024/03/22 05:25:33;;;;;;;15.83;12.23;;;3.90;99.90;;;4.78;100.00;98479.66;10400106;28;20769;-68
2024/03/22 05:30:36;;;;;;;13.07;11.50;;;3.90;99.90;;;4.76;100.00;98476.09;10399633;28;20239;-68
2024/03/22 05:35:38;;;;;;;14.10;12.10;;;3.90;99.90;;;4.71;100.00;98468.09;10408597;28;20746;-67
2024/03/22 05:40:42;;;;;;;14.03;12.30;;;3.90;99.90;;;4.73;100.00;98459.00;10402879;28;20275;-67
2024/03/22 05:45:44;;;;;;;15.97;13.33;;;3.90;99.90;;;4.72;100.00;98456.31;10404300;28;20336;-68
2024/03/22 05:50:46;;;;;;;14.27;12.77;;;3.90;99.90;;;4.90;100.00;98465.56;10401499;28;20665;-68
2024/03/22 05:55:52;;;;;;;17.80;14.13;;;4.20;99.90;;;5.22;100.00;98459.88;10399510;28;20963;-69
2024/03/22 06:00:55;;;;;;;14.87;13.13;;;4.50;99.90;;;5.60;100.00;98462.31;10414342;28;20311;-68
2024/03/22 06:05:59;;;;;;;16.37;14.00;;;4.70;99.90;;;5.74;100.00;98449.16;10409708;28;20227;-66
2024/03/22 06:11:03;;;;;;;16.73;14.20;;;5.00;99.90;;;5.99;100.00;98441.13;10411823;28;20259;-69
2024/03/22 06:16:06;;;;;;;18.33;14.83;;;5.30;99.90;;;6.31;100.00;98433.66;10410108;28;20343;-68
2024/03/22 06:21:08;;;;;;;16.83;14.20;;;5.50;99.90;;;6.44;99.95;98428.84;10410999;28;20319;-67
2024/03/22 06:26:12;;;;;;;16.87;14.53;;;5.60;99.90;;;6.52;98.10;98429.44;10408562;28;20316;-68
2024/03/22 06:31:14;;;;;;;16.17;14.23;;;5.50;99.90;;;6.55;98.23;98434.75;10407657;28;20360;-68
2024/03/22 06:36:16;;;;;;;16.90;14.70;;;5.60;99.90;;;6.56;98.58;98423.88;10430000;28;20331;-70
2024/03/22 06:41:19;;;;;;;15.80;13.73;;;5.60;99.90;;;6.72;97.74;98424.34;10420510;28;20316;-67
2024/03/22 06:46:22;;;;;;;14.27;12.77;;;5.70;99.90;;;6.79;97.53;98428.25;10426111;28;20324;-67
2024/03/22 06:51:24;;;;;;;15.67;13.07;;;5.80;99.90;;;7.01;97.07;98423.25;10435594;22;20258;-66
2024/03/22 06:56:28;;;;;;;14.33;12.87;;;6.00;99.90;;;7.11;95.50;98422.31;10413415;28;20354;-66
2024/03/22 07:01:30;;;;;;;15.70;12.50;;;6.20;99.90;;;7.22;95.68;98421.53;10412346;28;20757;-66
2024/03/22 07:06:32;;;;;;;14.87;13.27;;;6.20;99.90;;;7.20;95.98;98417.97;10395012;28;20823;-66
2024/03/22 07:11:36;;;;;;;15.77;13.47;;;6.20;99.90;;;7.38;96.82;98415.97;10383354;28;20616;-66
2024/03/22 07:16:38;;;;;;;16.67;13.67;;;6.50;99.90;;;8.22;97.03;98403.75;10380272;28;20230;-65
2024/03/22 07:21:40;;;;;;;14.97;13.43;;;7.30;99.90;;;8.80;91.33;98408.06;10382948;28;20243;-66
2024/03/22 07:26:43;;;;;;;15.00;13.40;;;7.90;99.90;;;9.48;90.65;98383.16;10381733;28;20236;-66
2024/03/22 07:31:46;;;;;;;15.53;12.50;;;8.60;99.90;;;10.03;85.90;98386.03;10374237;28;20237;-66
2024/03/22 07:36:48;;;;;;;14.52;13.02;;;9.00;99.90;;;10.55;85.22;98386.97;10362834;28;20236;-65
2024/03/22 07:41:52;;;;;;;13.50;11.52;;;9.60;99.90;;;11.41;82.03;98371.97;10377690;28;20933;-65
2024/03/22 07:46:54;;;;;;;12.93;11.60;;;10.50;99.90;;;11.89;78.08;98370.69;10363537;28;21070;-65
2024/03/22 07:51:57;;;;;;;12.02;10.82;;;10.70;99.90;;;12.23;78.13;98380.38;10395196;28;20286;-65
2024/03/22 07:57:00;;;;;;;12.88;11.68;;;11.30;99.90;;;12.88;76.61;98374.69;10370996;28;20233;-65
2024/03/22 08:02:03;;;;;;;14.05;11.90;;;12.20;99.90;;;13.13;74.47;98362.44;10383091;28;22303;-65
2024/03/22 08:07:05;;;;;;;13.15;11.85;;;12.40;99.90;;;13.36;73.29;98353.44;10374502;28;20230;-65
2024/03/22 08:12:09;;;;;;;12.00;10.80;;;12.30;99.90;;;13.98;72.52;98355.88;10359270;28;20241;-66
2024/03/22 08:17:11;;;;;;;12.85;11.60;;;13.20;99.90;;;14.32;69.91;98349.00;10371447;28;20662;-65
2024/03/22 08:22:13;;;;;;;13.73;12.27;;;13.50;99.90;;;14.62;69.37;98348.00;10380347;28;20494;-65
2024/03/22 08:27:17;;;;;;;13.85;12.45;;;13.80;99.90;;;15.04;67.85;98345.72;10393835;28;20229;-65
2024/03/22 08:32:19;;;;;;;13.93;12.52;;;14.30;99.90;;;15.53;65.66;98332.50;10401119;28;20954;-65
2024/03/22 08:37:21;;;;;;;12.30;11.05;;;14.90;99.90;;;16.07;62.70;98337.50;10407163;28;20226;-65
2024/03/22 08:42:25;;;;;;;13.18;11.88;;;15.40;99.90;;;16.48;61.45;98335.78;10374368;28;20845;-65
2024/03/22 08:47:27;;;;;;;10.95;9.98;;;15.90;99.90;;;17.09;58.49;98316.75;10400941;28;20230;-65
2024/03/22 08:52:30;;;;;;;11.20;10.10;;;16.50;99.90;;;17.34;58.55;98303.09;10367532;28;20233;-65
2024/03/22 08:57:33;;;;;;;11.88;10.75;;;16.50;99.90;;;17.49;57.84;98308.81;10364518;28;20255;-65
2024/03/22 09:02:35;;;;;;;10.38;9.30;;;16.60;99.90;;;17.68;57.08;98302.59;10386202;28;20700;-65
2024/03/22 09:07:38;;;;;;;10.50;9.07;;;16.80;99.90;;;17.83;56.80;98289.38;10370867;28;20244;-66
2024/03/22 09:12:42;;;;;;;9.70;8.75;;;16.90;99.90;;;17.87;54.93;98291.25;10380126;28;20230;-65
2024/03/22 09:17:44;;;;;;;9.85;8.80;;;16.80;99.90;;;17.64;56.61;98276.59;10370765;28;20230;-65
2024/03/22 09:22:46;;;;;;;9.35;8.45;;;16.50;99.90;;;17.72;55.79;98280.34;10379311;28;20320;-65
2024/03/22 09:27:50;;;;;;;9.98;8.90;;;16.70;99.90;;;17.73;56.35;98275.19;10365803;28;20227;-65
2024/03/22 09:32:52;;;;;;;9.18;8.30;;;16.80;99.90;;;18.00;54.10;98267.56;10383541;28;20222;-65
2024/03/22 09:37:54;;;;;;;9.07;8.25;;;16.90;99.90;;;18.23;53.29;98262.31;10363065;28;20225;-65
2024/03/22 09:43:03;;;;;;;8.95;7.60;;;17.20;99.90;;;18.07;55.59;98249.66;10374336;28;20312;-65
2024/03/22 09:48:07;;;;;;;7.63;6.93;;;17.20;99.90;;;18.45;54.59;98244.03;10377439;28;20644;-65
2024/03/22 09:53:11;;;;;;;8.52;7.47;;;17.60;99.90;;;19.05;51.45;98242.44;10397086;28;20252;-65
2024/03/22 09:58:16;;;;;;;7.57;6.93;;;18.20;99.90;;;19.39;50.92;98238.25;10362998;28;20568;-65
2024/03/22 10:03:18;;;;;;;6.47;5.93;;;18.60;99.40;;;19.43;48.96;98234.91;10394612;28;20378;-65
2024/03/22 10:08:20;;;;;;;7.28;5.90;;;18.80;96.70;;;19.33;49.46;98231.19;10364949;28;20236;-65
2024/03/22 10:13:24;;;;;;;7.30;6.63;;;18.70;97.50;;;19.13;49.76;98212.47;10371770;28;21883;-65
2024/03/22 10:18:27;;;;;;;7.50;6.25;;;18.50;97.00;;;19.28;48.38;98205.13;10367230;28;20225;-65
2024/03/22 10:23:30;;;;;;;7.03;6.32;;;18.50;96.30;;;19.32;48.81;98194.00;10363106;28;20636;-65
2024/03/22 10:28:34;;;;;;;6.63;6.03;;;18.70;96.30;;;18.99;49.60;98187.88;10375659;28;20232;-65
2024/03/22 10:33:36;;;;;;;6.80;5.63;;;18.20;97.40;;;18.97;50.42;98181.75;10364840;28;20248;-65
2024/03/22 10:38:40;;;;;;;7.05;6.45;;;18.10;98.00;;;19.36;49.02;98169.91;10378696;28;20972;-66
2024/03/22 10:43:44;;;;;;;6.43;5.70;;;18.50;96.80;;;19.49;47.51;98154.72;10360726;28;20690;-65
2024/03/22 10:48:46;;;;;;;6.07;5.47;;;18.50;95.50;;;19.52;47.92;98157.38;10389020;28;20314;-65
2024/03/22 10:53:49;;;;;;;6.63;6.03;;;18.70;95.20;;;19.56;46.74;98141.06;10389156;28;20238;-65
2024/03/22 10:58:53;;;;;;;7.63;6.20;;;18.70;94.50;;;19.39;46.49;98122.47;10359379;28;20234;-65
2024/03/22 11:04:05;;;;;;;5.45;4.95;;;18.50;94.00;;;19.35;46.69;98131.88;10380615;28;20781;-65
2024/03/22 11:09:10;;;;;;;5.57;5.10;;;18.50;94.20;;;19.56;44.26;98115.13;10381326;28;20758;-65
2024/03/22 11:14:14;;;;;;;5.13;4.63;;;18.60;91.90;;;18.93;43.93;98112.56;10357688;28;20594;-65
2024/03/22 11:19:16;;;;;;;6.13;5.35;;;18.10;90.90;;;19.05;44.52;98094.75;10363972;28;20229;-65
2024/03/22 11:24:18;;;;;;;6.65;6.05;;;18.30;91.40;;;19.25;45.56;98088.41;10356993;28;20240;-65
2024/03/22 11:29:21;;;;;;;5.72;5.22;;;18.50;92.70;;;19.25;45.50;98084.94;10358181;28;20615;-64
2024/03/22 11:34:24;;;;;;;5.72;5.22;;;18.30;92.90;;;19.19;46.27;98077.00;10362656;28;20228;-65
2024/03/22 11:39:26;;;;;;;5.45;5.05;;;18.30;93.50;;;19.20;45.70;98074.47;10373322;28;20236;-65
2024/03/22 11:44:30;;;;;;;5.45;4.95;;;18.40;92.80;;;19.10;46.83;98062.09;10384850;28;20700;-65
2024/03/22 11:49:32;;;;;;;6.75;5.57;;;18.30;93.80;;;19.39;44.76;98056.78;10391264;28;20233;-65
2024/03/22 11:54:34;;;;;;;6.55;5.78;;;18.60;91.90;;;19.74;43.95;98049.91;10383653;28;22187;-65
2024/03/22 11:59:41;;;;;;;6.25;5.50;;;19.00;91.10;;;19.93;43.43;98043.44;10375093;28;20320;-65
2024/03/22 12:04:44;;;;;;;6.03;5.50;;;19.00;91.00;;;19.60;44.18;98031.38;10368332;28;20320;-65
2024/03/22 12:09:46;;;;;;;6.00;5.50;;;18.60;91.70;;;19.57;43.83;98020.91;10401312;28;20235;-64
2024/03/22 12:14:51;;;;;;;5.75;5.20;;;18.70;91.30;;;19.71;44.81;98014.38;10385934;28;20973;-64
2024/03/22 12:19:53;;;;;;;6.35;5.63;;;19.00;92.10;;;19.95;43.64;98003.72;10393793;28;22307;-65
2024/03/22 12:24:55;;;;;;;5.88;5.13;;;19.10;90.90;;;19.93;44.44;97996.72;10358804;28;20222;-65
2024/03/22 12:29:59;;;;;;;6.10;5.50;;;19.10;91.40;;;20.09;43.00;97980.66;10380922;28;20236;-65
2024/03/22 12:35:01;;;;;;;6.03;4.75;;;19.40;90.10;;;19.97;43.34;97977.78;10396596;28;20232;-65
2024/03/22 12:40:08;;;;;;;6.80;5.53;;;19.10;90.60;;;20.00;43.65;97968.38;10385106;28;20236;-65
2024/03/22 12:45:12;;;;;;;6.97;5.78;;;19.10;91.00;;;20.35;43.03;97956.97;10375740;28;20604;-65
2024/03/22 12:50:14;;;;;;;6.00;5.38;;;19.40;90.30;;;20.40;43.37;97955.31;10385760;28;20613;-64
2024/03/22 12:55:17;;;;;;;6.78;5.07;;;19.50;90.80;;;20.40;43.30;97947.53;10404037;22;20652;-68
2024/03/22 13:00:20;;;;;;;6.28;5.68;;;19.60;90.30;;;20.21;43.72;97929.00;10403322;28;20311;-68
2024/03/22 13:05:22;;;;;;;6.55;5.80;;;19.30;91.00;;;20.12;43.05;97909.78;10387660;28;20358;-68
2024/03/22 13:10:25;;;;;;;7.28;5.60;;;19.20;90.20;;;20.53;42.37;97896.75;10388981;28;20317;-68
2024/03/22 13:15:30;;;;;;;6.20;5.70;;;19.50;90.00;;;20.52;41.65;97893.25;10376255;28;20336;-68
2024/03/22 13:20:33;;;;;;;5.57;5.07;;;19.60;88.10;;;20.39;43.02;97881.72;10386233;28;20305;-68
2024/03/22 13:25:37;;;;;;;5.53;5.03;;;19.50;89.90;;;20.54;42.58;97872.50;10379293;28;20373;-67
2024/03/22 13:30:40;;;;;;;6.32;5.72;;;19.40;89.40;;;20.66;41.09;97864.91;10361262;28;20674;-68
2024/03/22 13:35:46;;;;;;;5.22;4.72;;;19.60;86.90;;;20.24;42.99;97858.97;10372447;28;20286;-67
2024/03/22 13:40:54;;;;;;;4.88;4.43;;;19.30;90.00;;;20.47;42.33;97846.41;10378436;28;20309;-68
2024/03/22 13:45:58;;;;;;;5.47;4.95;;;19.40;88.80;;;20.40;41.76;97843.66;10387612;28;20324;-67
2024/03/22 13:51:00;;;;;;;5.15;4.75;;;19.40;87.00;;;20.25;41.46;97833.88;10369208;28;20316;-67
2024/03/22 13:56:03;;;;;;;5.53;4.35;;;19.30;86.70;;;20.23;40.71;97830.38;10370166;28;20875;-69
2024/03/22 14:01:06;;;;;;;4.93;4.35;;;19.20;85.10;;;20.38;40.45;97824.59;10374190;28;20240;-66
2024/03/22 14:06:09;;;;;;;5.20;4.70;;;19.40;84.60;;;20.10;40.71;97815.44;10372699;28;20279;-67
2024/03/22 14:11:11;;;;;;;5.32;4.82;;;19.10;84.80;;;20.07;41.20;97808.47;10364999;28;20329;-67
2024/03/22 14:16:14;;;;;;;4.75;4.30;;;19.00;85.60;;;20.19;41.21;97795.69;10370894;28;20229;-66
2024/03/22 14:21:19;;;;;;;4.72;4.32;;;19.10;85.90;;;20.19;41.62;97792.25;10356839;28;20636;-66
2024/03/22 14:26:21;;;;;;;4.65;4.15;;;19.30;86.70;;;20.14;42.42;97778.28;10352993;28;20308;-67
2024/03/22 14:31:24;;;;;;;5.28;4.82;;;19.20;87.20;;;20.18;41.67;97773.19;10374776;28;20686;-66
2024/03/22 14:36:26;;;;;;;4.95;4.43;;;19.30;85.80;;;20.33;42.28;97764.78;10351529;28;20229;-67
2024/03/22 14:41:29;;;;;;;5.82;4.18;;;19.30;88.50;;;20.24;42.00;97756.84;10361612;28;20328;-67
2024/03/22 14:46:32;;;;;;;5.18;4.13;;;19.20;88.20;;;20.14;42.53;97752.34;10354990;28;20579;-67
2024/03/22 14:51:35;;;;;;;4.75;4.35;;;19.10;88.40;;;20.01;42.97;97741.75;10359325;28;20324;-67
2024/03/22 14:56:37;;;;;;;5.68;4.32;;;19.10;89.10;;;19.90;42.98;97732.03;10375100;28;20292;-67
2024/03/22 15:01:40;;;;;;;4.63;4.22;;;19.00;88.20;;;19.77;43.09;97713.66;10370162;28;20706;-67
2024/03/22 15:06:44;;;;;;;5.53;5.03;;;18.90;88.80;;;19.63;42.92;97712.50;10368167;28;21050;-67
2024/03/22 15:11:46;;;;;;;4.38;4.00;;;18.80;88.50;;;19.62;43.17;97702.94;10384573;28;20341;-67
2024/03/22 15:16:50;;;;;;;4.15;3.75;;;18.70;89.10;;;19.62;43.92;97705.53;10345899;28;22338;-67
2024/03/22 15:21:52;;;;;;;4.90;4.50;;;18.70;90.00;;;19.59;44.53;97695.13;10369232;28;20222;-67
2024/03/22 15:26:55;;;;;;;5.45;4.53;;;18.70;91.00;;;19.56;45.21;97698.53;10349932;28;20229;-67
2024/03/22 15:31:59;;;;;;;4.68;4.28;;;18.70;92.30;;;19.50;45.20;97694.94;10378343;28;20317;-67
2024/03/22 15:37:01;;;;;;;4.57;4.15;;;18.60;91.50;;;19.28;46.30;97694.50;10387215;28;20312;-68
2024/03/22 15:42:04;;;;;;;6.45;5.28;;;18.40;92.50;;;19.15;47.73;97687.34;10376296;28;20340;-68
2024/03/22 15:47:07;;;;;;;5.50;5.00;;;18.30;94.00;;;19.03;48.33;97689.66;10362788;28;20316;-68
2024/03/22 15:52:10;;;;;;;5.90;5.30;;;18.20;94.90;;;18.83;48.57;97679.78;10372388;28;20230;-68
2024/03/22 15:57:12;;;;;;;5.28;4.03;;;17.90;94.60;;;18.75;48.53;97676.16;10361871;28;20233;-67
2024/03/22 16:02:15;;;;;;;5.15;4.15;;;17.90;95.10;;;18.69;49.49;97675.97;10370157;28;20392;-67
2024/03/22 16:07:17;;;;;;;5.47;4.13;;;17.80;95.60;;;18.62;48.46;97676.66;10359909;28;20345;-68
2024/03/22 16:12:19;;;;;;;4.15;3.85;;;17.70;94.40;;;18.43;48.34;97673.69;10378119;28;20801;-66
2024/03/22 16:17:23;;;;;;;3.90;3.60;;;17.50;94.60;;;18.33;48.42;97679.47;10366583;28;20344;-65
2024/03/22 16:22:26;;;;;;;5.40;3.70;;;17.30;94.40;;;18.14;48.29;97674.69;10370109;28;20303;-65
2024/03/22 16:27:28;;;;;;;4.32;3.92;;;17.30;94.50;;;18.06;49.46;97665.88;10365170;28;20316;-66
2024/03/22 16:32:31;;;;;;;3.70;3.40;;;17.20;95.60;;;18.01;49.64;97671.81;10365932;28;20677;-66
2024/03/22 16:37:33;;;;;;;5.28;4.30;;;17.00;95.50;;;17.86;49.54;97663.69;10378663;28;20333;-66
2024/03/22 16:42:45;;;;;;;5.55;3.58;;;16.90;95.40;;;17.65;48.67;97663.06;10360796;28;20324;-67
2024/03/22 16:47:52;;;;;;;3.58;3.28;;;16.70;94.00;;;17.56;48.39;97661.13;10360285;28;20618;-68
2024/03/22 16:52:54;;;;;;;3.33;2.97;;;16.60;93.90;;;17.41;49.44;97650.41;10377824;28;20240;-67
2024/03/22 16:58:00;;;;;;;3.20;2.90;;;16.50;96.00;;;17.30;50.19;97645.81;10382576;28;20229;-66
2024/03/22 17:03:05;;;;;;;3.85;3.55;;;16.40;96.10;;;17.17;51.05;97635.09;10379004;28;20296;-66
2024/03/22 17:08:07;;;;;;;3.63;3.00;;;16.20;97.60;;;17.01;52.98;97631.22;10392146;28;20260;-67
2024/03/22 17:13:10;;;;;;;2.70;2.50;;;16.10;98.40;;;16.90;53.39;97633.50;10374595;28;20613;-67
2024/03/22 17:18:13;;;;;;;3.63;3.30;;;16.00;99.90;;;16.80;54.10;97641.81;10389103;28;20317;-67
2024/03/22 17:23:15;;;;;;;3.67;3.08;;;15.90;99.90;;;16.67;55.24;97638.81;10365974;28;20314;-67
2024/03/22 17:28:18;;;;;;;3.38;2.90;;;15.70;99.90;;;16.54;54.94;97635.84;10369799;28;20319;-67
2024/03/22 17:33:21;;;;;;;3.58;2.85;;;15.60;99.90;;;16.39;54.93;97638.81;10358628;28;20230;-67
2024/03/22 17:38:24;;;;;;;3.03;2.72;;;15.40;99.90;;;16.16;55.34;97633.84;10370475;28;20318;-67
2024/03/22 17:43:26;;;;;;;5.38;3.33;;;15.10;99.90;;;15.94;56.05;97632.28;10356696;28;20313;-67
2024/03/22 17:48:29;;;;;;;4.32;4.00;;;14.90;99.90;;;15.71;57.44;97634.13;10351742;28;20224;-67
2024/03/22 17:53:32;;;;;;;4.63;4.10;;;14.70;99.90;;;15.52;59.74;97634.28;10362612;28;20251;-67
2024/03/22 17:58:34;;;;;;;4.55;3.88;;;14.50;99.90;;;15.34;60.53;97631.97;10355138;28;20646;-67
2024/03/22 18:03:38;;;;;;;6.57;4.53;;;14.40;99.90;;;15.04;61.53;97624.91;10358922;28;21129;-67
2024/03/22 18:08:40;;;;;;;5.47;4.95;;;14.00;99.90;;;14.86;63.36;97613.97;10355800;28;20746;-67
2024/03/22 18:13:45;;;;;;;6.88;4.10;;;13.90;99.90;;;14.70;65.10;97617.66;10361925;28;20226;-67
2024/03/22 18:18:52;;;;;;;4.65;3.90;;;13.70;99.90;;;14.49;64.83;97619.41;10361179;28;20253;-68
2024/03/22 18:23:54;;;;;;;5.30;3.75;;;13.60;99.90;;;14.53;65.61;97613.56;10364077;28;20239;-67
2024/03/22 18:28:56;;;;;;;3.90;3.55;;;13.70;99.90;;;14.53;nan;97605.88;10356893;28;20227;-67
2024/03/22 18:34:00;;;;;;;3.30;3.10;;;13.70;99.90;;;14.46;67.11;97616.72;10370984;28;20820;-68
2024/03/22 18:39:02;;;;;;;4.88;3.47;;;13.60;99.90;;;14.36;68.90;97611.22;10366198;28;20320;-68
2024/03/22 18:44:05;;;;;;;5.28;4.38;;;13.50;99.90;;;14.36;69.62;97611.22;10350677;28;20308;-68
2024/03/22 18:49:08;;;;;;;6.97;6.38;;;13.50;99.90;;;14.43;70.72;97608.06;10371572;28;20347;-67
2024/03/22 18:54:10;;;;;;;5.97;5.15;;;13.40;99.90;;;14.27;71.20;97600.56;10369616;28;20256;-67
2024/03/22 18:59:13;;;;;;;5.45;5.05;;;13.30;99.90;;;14.12;71.93;97613.72;10383405;28;20312;-66
2024/03/22 19:04:16;;;;;;;5.85;5.22;;;13.20;99.90;;;13.96;73.09;97609.69;10362262;28;20325;-67
2024/03/22 19:09:18;;;;;;;5.25;4.80;;;13.00;99.90;;;13.71;74.24;97610.38;10355384;28;20305;-67
2024/03/22 19:14:20;;;;;;;5.15;4.65;;;12.70;99.90;;;13.48;74.99;97609.44;10376937;28;20739;-67
2024/03/22 19:19:24;;;;;;;4.68;4.28;;;12.40;99.90;;;13.29;75.82;97596.66;10369817;28;20752;-67
2024/03/22 19:24:26;;;;;;;4.35;3.95;;;12.30;99.90;;;13.03;75.22;97598.94;10364575;28;20320;-68
2024/03/22 19:29:28;;;;;;;4.93;3.65;;;12.10;99.90;;;12.91;75.54;97592.41;10362713;28;20777;-68
2024/03/22 19:34:32;;;;;;;4.15;3.75;;;12.00;99.90;;;12.78;76.25;97585.88;10349526;28;20226;-68
2024/03/22 19:39:34;;;;;;;4.13;3.78;;;11.80;99.90;;;12.57;77.83;97580.66;10355634;28;20336;-68
2024/03/22 19:44:37;;;;;;;4.38;4.00;;;11.60;99.90;;;12.44;76.34;97573.22;10352451;28;20324;-68
2024/03/22 19:49:41;;;;;;;4.95;4.55;;;11.40;99.90;;;12.20;77.33;97583.25;10379541;28;20321;-69
2024/03/22 19:54:43;;;;;;;5.88;5.28;;;11.20;99.90;;;11.99;78.42;97576.34;10376446;28;20233;-68
2024/03/22 19:59:45;;;;;;;5.50;5.00;;;11.00;99.90;;;11.90;79.32;97578.44;10355955;28;20320;-69
2024/03/22 20:04:49;;;;;;;5.00;4.60;;;10.90;99.90;;;11.69;80.85;97574.03;10359720;28;20795;-66
2024/03/22 20:09:51;;;;;;;5.43;4.90;;;10.70;99.90;;;11.62;81.38;97577.09;10370869;28;20548;-69
2024/03/22 20:14:53;;;;;;;6.03;5.47;;;10.60;99.90;;;11.45;81.95;97570.28;10363306;28;20312;-68
2024/03/22 20:19:57;;;;;;;4.88;4.47;;;10.40;99.90;;;11.35;81.46;97568.06;10371078;28;20714;-66
2024/03/22 20:24:59;;;;;;;6.13;5.03;;;10.40;99.90;;;11.24;81.74;97565.84;10377830;28;20322;-68
2024/03/22 20:30:01;;;;;;;5.00;4.47;;;10.30;99.90;;;11.14;81.76;97565.34;10380017;28;20246;-67
2024/03/22 20:35:06;;;;;;;5.45;4.50;;;10.20;99.90;;;11.01;80.58;97564.69;10396139;28;20260;-67
2024/03/22 20:40:10;;;;;;;4.97;4.45;;;10.10;99.90;;;10.94;80.51;97556.66;10383536;28;20260;-68
2024/03/22 20:45:14;;;;;;;6.10;5.50;;;10.10;99.90;;;10.82;81.72;97550.13;10393238;28;20324;-69
2024/03/22 20:50:22;;;;;;;4.93;4.60;;;9.90;99.90;;;10.55;84.22;97546.16;10386384;28;20303;-68
2024/03/22 20:55:30;;;;;;;5.15;4.75;;;9.60;99.90;;;10.49;84.79;97545.84;10372918;28;20324;-68
2024/03/22 21:00:38;;;;;;;6.15;5.45;;;9.60;99.90;;;10.38;84.58;97530.81;10392427;28;20301;-68